sensor_id;sensor_type;location;lat;lon;timestamp;P1;durP1;ratioP1;P2;durP2;ratioP2
71562;SDS011;59391;52.504;13.438;2023-03-13T00:01:32;16.58;;;9.32;;
71562;SDS011;59391;52.504;13.438;2023-03-13T00:04:05;19.33;;;8.95;;
71562;SDS011;59391;52.504;13.438;2023-03-13T00:06:32;19.63;;;8.10;;
71562;SDS011;59391;52.504;13.438;2023-03-13T00:09:01;16.45;;;8.70;;
71562;SDS011;59391;52.504;13.438;2023-03-13T00:11:30;16.40;;;7.83;;
71562;SDS011;59391;52.504;13.438;2023-03-13T00:13:56;16.25;;;8.70;;
71562;SDS011;59391;52.504;13.438;2023-03-13T00:16:24;13.32;;;8.27;;
71562;SDS011;59391;52.504;13.438;2023-03-13T00:18:52;17.95;;;8.85;;
71562;SDS011;59391;52.504;13.438;2023-03-13T00:21:20;19.25;;;9.45;;
71562;SDS011;59391;52.504;13.438;2023-03-13T00:23:49;17.70;;;8.83;;
71562;SDS011;59391;52.504;13.438;2023-03-13T00:26:16;17.63;;;9.13;;
71562;SDS011;59391;52.504;13.438;2023-03-13T00:28:47;16.05;;;8.25;;
71562;SDS011;59391;52.504;13.438;2023-03-13T00:33:49;16.60;;;8.43;;
71562;SDS011;59391;52.504;13.438;2023-03-13T00:36:21;16.27;;;8.23;;
71562;SDS011;59391;52.504;13.438;2023-03-13T00:38:52;20.20;;;8.65;;
71562;SDS011;59391;52.504;13.438;2023-03-13T00:41:29;16.45;;;8.50;;
71562;SDS011;59391;52.504;13.438;2023-03-13T00:43:56;18.05;;;7.72;;
71562;SDS011;59391;52.504;13.438;2023-03-13T00:46:24;17.67;;;8.25;;
71562;SDS011;59391;52.504;13.438;2023-03-13T00:48:52;18.77;;;9.13;;
71562;SDS011;59391;52.504;13.438;2023-03-13T00:51:19;18.60;;;8.13;;
71562;SDS011;59391;52.504;13.438;2023-03-13T00:53:47;19.02;;;8.82;;
71562;SDS011;59391;52.504;13.438;2023-03-13T00:56:16;16.80;;;8.77;;
71562;SDS011;59391;52.504;13.438;2023-03-13T00:58:44;19.90;;;8.50;;
71562;SDS011;59391;52.504;13.438;2023-03-13T01:01:25;17.60;;;8.50;;
71562;SDS011;59391;52.504;13.438;2023-03-13T01:03:56;18.58;;;9.20;;
71562;SDS011;59391;52.504;13.438;2023-03-13T01:06:28;15.18;;;7.80;;
71562;SDS011;59391;52.504;13.438;2023-03-13T01:08:56;19.47;;;9.10;;
71562;SDS011;59391;52.504;13.438;2023-03-13T01:11:27;20.15;;;9.20;;
71562;SDS011;59391;52.504;13.438;2023-03-13T01:13:57;15.32;;;9.00;;
71562;SDS011;59391;52.504;13.438;2023-03-13T01:16:27;29.17;;;13.63;;
71562;SDS011;59391;52.504;13.438;2023-03-13T01:18:58;22.92;;;11.15;;
71562;SDS011;59391;52.504;13.438;2023-03-13T01:21:27;19.03;;;9.20;;
71562;SDS011;59391;52.504;13.438;2023-03-13T01:23:53;26.95;;;12.80;;
71562;SDS011;59391;52.504;13.438;2023-03-13T01:26:20;33.25;;;16.48;;
71562;SDS011;59391;52.504;13.438;2023-03-13T01:28:46;20.02;;;9.73;;
71562;SDS011;59391;52.504;13.438;2023-03-13T01:31:13;15.73;;;7.73;;
71562;SDS011;59391;52.504;13.438;2023-03-13T01:33:46;15.10;;;7.90;;
71562;SDS011;59391;52.504;13.438;2023-03-13T01:36:14;16.83;;;9.20;;
71562;SDS011;59391;52.504;13.438;2023-03-13T01:38:41;14.60;;;8.38;;
71562;SDS011;59391;52.504;13.438;2023-03-13T01:41:08;19.27;;;9.53;;
71562;SDS011;59391;52.504;13.438;2023-03-13T01:43:36;18.77;;;9.10;;
71562;SDS011;59391;52.504;13.438;2023-03-13T01:46:04;16.85;;;8.35;;
71562;SDS011;59391;52.504;13.438;2023-03-13T01:48:42;25.20;;;13.27;;
71562;SDS011;59391;52.504;13.438;2023-03-13T01:51:37;16.77;;;8.98;;
71562;SDS011;59391;52.504;13.438;2023-03-13T01:54:23;18.00;;;9.30;;
71562;SDS011;59391;52.504;13.438;2023-03-13T01:57:15;25.85;;;11.10;;
71562;SDS011;59391;52.504;13.438;2023-03-13T01:59:54;31.95;;;15.00;;
71562;SDS011;59391;52.504;13.438;2023-03-13T02:02:26;22.58;;;12.05;;
71562;SDS011;59391;52.504;13.438;2023-03-13T02:04:54;31.20;;;13.52;;
71562;SDS011;59391;52.504;13.438;2023-03-13T02:07:30;20.77;;;11.00;;
71562;SDS011;59391;52.504;13.438;2023-03-13T02:10:11;21.58;;;11.25;;
71562;SDS011;59391;52.504;13.438;2023-03-13T02:12:40;20.55;;;10.07;;
71562;SDS011;59391;52.504;13.438;2023-03-13T02:15:16;19.42;;;9.63;;
71562;SDS011;59391;52.504;13.438;2023-03-13T02:17:45;20.35;;;9.90;;
71562;SDS011;59391;52.504;13.438;2023-03-13T02:20:13;16.03;;;8.70;;
71562;SDS011;59391;52.504;13.438;2023-03-13T02:28:03;20.50;;;10.02;;
71562;SDS011;59391;52.504;13.438;2023-03-13T02:30:36;19.35;;;8.95;;
71562;SDS011;59391;52.504;13.438;2023-03-13T02:33:05;20.77;;;9.53;;
71562;SDS011;59391;52.504;13.438;2023-03-13T02:35:31;16.92;;;8.45;;
71562;SDS011;59391;52.504;13.438;2023-03-13T02:38:00;18.58;;;8.75;;
71562;SDS011;59391;52.504;13.438;2023-03-13T02:40:31;18.43;;;9.17;;
71562;SDS011;59391;52.504;13.438;2023-03-13T02:43:04;18.60;;;8.98;;
71562;SDS011;59391;52.504;13.438;2023-03-13T02:45:36;17.65;;;8.52;;
71562;SDS011;59391;52.504;13.438;2023-03-13T02:48:02;16.00;;;8.60;;
71562;SDS011;59391;52.504;13.438;2023-03-13T02:50:27;16.98;;;8.95;;
71562;SDS011;59391;52.504;13.438;2023-03-13T02:52:55;16.23;;;7.70;;
71562;SDS011;59391;52.504;13.438;2023-03-13T02:55:36;14.73;;;7.85;;
71562;SDS011;59391;52.504;13.438;2023-03-13T02:58:05;16.27;;;8.33;;
71562;SDS011;59391;52.504;13.438;2023-03-13T03:00:32;14.73;;;7.43;;
71562;SDS011;59391;52.504;13.438;2023-03-13T03:02:57;15.05;;;7.95;;
71562;SDS011;59391;52.504;13.438;2023-03-13T03:05:23;17.20;;;8.57;;
71562;SDS011;59391;52.504;13.438;2023-03-13T03:07:49;15.20;;;7.35;;
71562;SDS011;59391;52.504;13.438;2023-03-13T03:10:16;14.10;;;7.35;;
71562;SDS011;59391;52.504;13.438;2023-03-13T03:12:43;16.80;;;7.80;;
71562;SDS011;59391;52.504;13.438;2023-03-13T03:15:08;15.88;;;7.97;;
71562;SDS011;59391;52.504;13.438;2023-03-13T03:17:35;15.43;;;7.95;;
71562;SDS011;59391;52.504;13.438;2023-03-13T03:20:02;17.57;;;7.90;;
71562;SDS011;59391;52.504;13.438;2023-03-13T03:22:31;13.68;;;7.53;;
71562;SDS011;59391;52.504;13.438;2023-03-13T03:24:58;15.43;;;7.15;;
71562;SDS011;59391;52.504;13.438;2023-03-13T03:27:24;14.57;;;7.23;;
71562;SDS011;59391;52.504;13.438;2023-03-13T03:29:49;18.80;;;7.85;;
71562;SDS011;59391;52.504;13.438;2023-03-13T03:32:15;16.50;;;7.27;;
71562;SDS011;59391;52.504;13.438;2023-03-13T03:34:40;16.40;;;7.40;;
71562;SDS011;59391;52.504;13.438;2023-03-13T03:37:06;12.38;;;6.82;;
71562;SDS011;59391;52.504;13.438;2023-03-13T03:39:32;14.53;;;5.87;;
71562;SDS011;59391;52.504;13.438;2023-03-13T03:41:57;18.70;;;7.20;;
71562;SDS011;59391;52.504;13.438;2023-03-13T03:44:23;16.27;;;7.40;;
71562;SDS011;59391;52.504;13.438;2023-03-13T03:46:49;14.77;;;6.50;;
71562;SDS011;59391;52.504;13.438;2023-03-13T03:49:14;14.77;;;6.47;;
71562;SDS011;59391;52.504;13.438;2023-03-13T03:51:40;13.67;;;6.50;;
71562;SDS011;59391;52.504;13.438;2023-03-13T03:54:06;13.93;;;6.80;;
71562;SDS011;59391;52.504;13.438;2023-03-13T03:56:31;16.77;;;7.00;;
71562;SDS011;59391;52.504;13.438;2023-03-13T03:58:57;16.15;;;7.15;;
71562;SDS011;59391;52.504;13.438;2023-03-13T04:01:22;12.90;;;5.60;;
71562;SDS011;59391;52.504;13.438;2023-03-13T04:03:48;14.63;;;6.90;;
71562;SDS011;59391;52.504;13.438;2023-03-13T04:06:14;13.97;;;5.80;;
71562;SDS011;59391;52.504;13.438;2023-03-13T04:08:39;15.40;;;6.27;;
71562;SDS011;59391;52.504;13.438;2023-03-13T04:11:05;15.02;;;5.80;;
71562;SDS011;59391;52.504;13.438;2023-03-13T04:13:30;12.50;;;5.57;;
71562;SDS011;59391;52.504;13.438;2023-03-13T04:15:56;12.40;;;5.35;;
71562;SDS011;59391;52.504;13.438;2023-03-13T04:18:22;13.33;;;6.27;;
71562;SDS011;59391;52.504;13.438;2023-03-13T04:20:47;10.30;;;5.70;;
71562;SDS011;59391;52.504;13.438;2023-03-13T04:23:13;15.77;;;6.15;;
71562;SDS011;59391;52.504;13.438;2023-03-13T04:25:38;16.47;;;6.17;;
71562;SDS011;59391;52.504;13.438;2023-03-13T04:28:04;15.25;;;5.95;;
71562;SDS011;59391;52.504;13.438;2023-03-13T04:30:30;8.80;;;4.93;;
71562;SDS011;59391;52.504;13.438;2023-03-13T04:32:55;14.27;;;5.23;;
71562;SDS011;59391;52.504;13.438;2023-03-13T04:35:21;12.05;;;5.75;;
71562;SDS011;59391;52.504;13.438;2023-03-13T04:37:47;16.50;;;6.43;;
71562;SDS011;59391;52.504;13.438;2023-03-13T04:40:12;16.70;;;7.63;;
71562;SDS011;59391;52.504;13.438;2023-03-13T04:42:39;16.35;;;7.47;;
71562;SDS011;59391;52.504;13.438;2023-03-13T04:45:06;25.02;;;11.43;;
71562;SDS011;59391;52.504;13.438;2023-03-13T04:47:36;24.43;;;11.10;;
71562;SDS011;59391;52.504;13.438;2023-03-13T04:50:02;44.47;;;21.05;;
71562;SDS011;59391;52.504;13.438;2023-03-13T04:52:28;13.43;;;5.90;;
71562;SDS011;59391;52.504;13.438;2023-03-13T04:54:53;29.73;;;11.07;;
71562;SDS011;59391;52.504;13.438;2023-03-13T04:57:19;27.83;;;12.33;;
71562;SDS011;59391;52.504;13.438;2023-03-13T04:59:44;46.65;;;18.90;;
71562;SDS011;59391;52.504;13.438;2023-03-13T05:02:11;41.47;;;17.80;;
71562;SDS011;59391;52.504;13.438;2023-03-13T05:04:37;52.70;;;21.48;;
71562;SDS011;59391;52.504;13.438;2023-03-13T05:07:03;35.75;;;16.10;;
71562;SDS011;59391;52.504;13.438;2023-03-13T05:09:29;49.07;;;23.03;;
71562;SDS011;59391;52.504;13.438;2023-03-13T05:11:54;45.73;;;21.50;;
71562;SDS011;59391;52.504;13.438;2023-03-13T05:14:20;20.88;;;8.85;;
71562;SDS011;59391;52.504;13.438;2023-03-13T05:16:46;30.50;;;13.23;;
71562;SDS011;59391;52.504;13.438;2023-03-13T05:19:11;17.77;;;6.72;;
71562;SDS011;59391;52.504;13.438;2023-03-13T05:21:37;23.77;;;9.10;;
71562;SDS011;59391;52.504;13.438;2023-03-13T05:24:03;17.23;;;5.78;;
71562;SDS011;59391;52.504;13.438;2023-03-13T05:26:38;19.70;;;11.70;;
71562;SDS011;59391;52.504;13.438;2023-03-13T05:29:06;16.58;;;9.15;;
71562;SDS011;59391;52.504;13.438;2023-03-13T05:31:32;16.52;;;6.13;;
71562;SDS011;59391;52.504;13.438;2023-03-13T05:33:58;18.27;;;7.33;;
71562;SDS011;59391;52.504;13.438;2023-03-13T05:36:23;15.97;;;7.10;;
71562;SDS011;59391;52.504;13.438;2023-03-13T05:38:49;20.48;;;7.70;;
71562;SDS011;59391;52.504;13.438;2023-03-13T05:41:15;17.30;;;7.03;;
71562;SDS011;59391;52.504;13.438;2023-03-13T05:43:40;12.85;;;5.57;;
71562;SDS011;59391;52.504;13.438;2023-03-13T05:46:06;18.67;;;7.20;;
71562;SDS011;59391;52.504;13.438;2023-03-13T05:48:31;14.60;;;6.22;;
71562;SDS011;59391;52.504;13.438;2023-03-13T05:50:57;15.77;;;6.40;;
71562;SDS011;59391;52.504;13.438;2023-03-13T05:53:23;16.63;;;6.83;;
71562;SDS011;59391;52.504;13.438;2023-03-13T05:55:48;18.92;;;6.53;;
71562;SDS011;59391;52.504;13.438;2023-03-13T05:58:14;18.80;;;5.87;;
71562;SDS011;59391;52.504;13.438;2023-03-13T06:00:39;17.92;;;6.47;;
71562;SDS011;59391;52.504;13.438;2023-03-13T06:03:07;16.37;;;5.60;;
71562;SDS011;59391;52.504;13.438;2023-03-13T06:05:33;19.45;;;5.78;;
71562;SDS011;59391;52.504;13.438;2023-03-13T06:07:59;22.88;;;7.00;;
71562;SDS011;59391;52.504;13.438;2023-03-13T06:10:26;18.05;;;6.57;;
71562;SDS011;59391;52.504;13.438;2023-03-13T06:12:53;17.03;;;6.57;;
71562;SDS011;59391;52.504;13.438;2023-03-13T06:15:20;20.25;;;7.55;;
71562;SDS011;59391;52.504;13.438;2023-03-13T06:17:47;19.50;;;6.95;;
71562;SDS011;59391;52.504;13.438;2023-03-13T06:20:12;16.93;;;6.23;;
71562;SDS011;59391;52.504;13.438;2023-03-13T06:22:39;14.60;;;6.20;;
71562;SDS011;59391;52.504;13.438;2023-03-13T06:25:06;14.40;;;5.80;;
71562;SDS011;59391;52.504;13.438;2023-03-13T06:27:32;24.73;;;6.70;;
71562;SDS011;59391;52.504;13.438;2023-03-13T06:29:57;24.40;;;7.13;;
71562;SDS011;59391;52.504;13.438;2023-03-13T06:32:23;14.13;;;5.88;;
71562;SDS011;59391;52.504;13.438;2023-03-13T06:34:48;18.40;;;6.43;;
71562;SDS011;59391;52.504;13.438;2023-03-13T06:37:14;15.83;;;6.47;;
71562;SDS011;59391;52.504;13.438;2023-03-13T06:39:40;14.90;;;6.57;;
71562;SDS011;59391;52.504;13.438;2023-03-13T06:42:05;13.70;;;5.63;;
71562;SDS011;59391;52.504;13.438;2023-03-13T06:44:31;22.55;;;8.32;;
71562;SDS011;59391;52.504;13.438;2023-03-13T06:46:57;16.10;;;6.80;;
71562;SDS011;59391;52.504;13.438;2023-03-13T06:49:22;23.45;;;7.93;;
71562;SDS011;59391;52.504;13.438;2023-03-13T06:51:48;23.07;;;7.53;;
71562;SDS011;59391;52.504;13.438;2023-03-13T06:54:14;17.92;;;7.00;;
71562;SDS011;59391;52.504;13.438;2023-03-13T06:56:39;18.37;;;6.63;;
71562;SDS011;59391;52.504;13.438;2023-03-13T06:59:05;20.10;;;6.00;;
71562;SDS011;59391;52.504;13.438;2023-03-13T07:01:31;20.20;;;6.65;;
71562;SDS011;59391;52.504;13.438;2023-03-13T07:03:56;18.50;;;6.22;;
71562;SDS011;59391;52.504;13.438;2023-03-13T07:06:22;22.00;;;7.13;;
71562;SDS011;59391;52.504;13.438;2023-03-13T07:08:48;19.15;;;6.78;;
71562;SDS011;59391;52.504;13.438;2023-03-13T07:11:13;22.73;;;5.90;;
71562;SDS011;59391;52.504;13.438;2023-03-13T07:13:40;19.15;;;6.43;;
71562;SDS011;59391;52.504;13.438;2023-03-13T07:16:07;19.42;;;6.72;;
71562;SDS011;59391;52.504;13.438;2023-03-13T07:18:36;18.37;;;6.67;;
71562;SDS011;59391;52.504;13.438;2023-03-13T07:21:03;15.75;;;5.97;;
71562;SDS011;59391;52.504;13.438;2023-03-13T07:23:29;20.10;;;6.20;;
71562;SDS011;59391;52.504;13.438;2023-03-13T07:26:02;15.35;;;5.78;;
71562;SDS011;59391;52.504;13.438;2023-03-13T07:28:34;16.13;;;5.95;;
71562;SDS011;59391;52.504;13.438;2023-03-13T07:31:07;19.53;;;6.07;;
71562;SDS011;59391;52.504;13.438;2023-03-13T07:33:36;20.58;;;6.00;;
71562;SDS011;59391;52.504;13.438;2023-03-13T07:36:02;22.27;;;6.33;;
71562;SDS011;59391;52.504;13.438;2023-03-13T07:38:28;17.38;;;6.88;;
71562;SDS011;59391;52.504;13.438;2023-03-13T07:40:54;18.98;;;6.28;;
71562;SDS011;59391;52.504;13.438;2023-03-13T07:43:22;17.30;;;6.68;;
71562;SDS011;59391;52.504;13.438;2023-03-13T07:45:59;20.73;;;6.57;;
71562;SDS011;59391;52.504;13.438;2023-03-13T07:48:28;18.08;;;6.78;;
71562;SDS011;59391;52.504;13.438;2023-03-13T07:50:57;21.05;;;6.88;;
71562;SDS011;59391;52.504;13.438;2023-03-13T07:53:23;19.30;;;6.38;;
71562;SDS011;59391;52.504;13.438;2023-03-13T07:55:52;20.13;;;6.57;;
71562;SDS011;59391;52.504;13.438;2023-03-13T07:58:33;23.13;;;6.50;;
71562;SDS011;59391;52.504;13.438;2023-03-13T08:01:06;14.15;;;6.15;;
71562;SDS011;59391;52.504;13.438;2023-03-13T08:03:44;20.17;;;6.40;;
71562;SDS011;59391;52.504;13.438;2023-03-13T08:06:13;19.70;;;5.82;;
71562;SDS011;59391;52.504;13.438;2023-03-13T08:08:42;19.95;;;7.22;;
71562;SDS011;59391;52.504;13.438;2023-03-13T08:11:09;19.73;;;5.90;;
71562;SDS011;59391;52.504;13.438;2023-03-13T08:13:40;19.05;;;6.20;;
71562;SDS011;59391;52.504;13.438;2023-03-13T08:18:39;15.80;;;5.53;;
71562;SDS011;59391;52.504;13.438;2023-03-13T08:21:15;19.83;;;6.00;;
71562;SDS011;59391;52.504;13.438;2023-03-13T08:23:45;19.58;;;6.35;;
71562;SDS011;59391;52.504;13.438;2023-03-13T08:26:18;17.65;;;5.70;;
71562;SDS011;59391;52.504;13.438;2023-03-13T08:28:46;16.85;;;5.43;;
71562;SDS011;59391;52.504;13.438;2023-03-13T08:31:22;19.42;;;6.85;;
71562;SDS011;59391;52.504;13.438;2023-03-13T08:34:12;17.20;;;5.57;;
71562;SDS011;59391;52.504;13.438;2023-03-13T08:36:40;19.67;;;5.95;;
71562;SDS011;59391;52.504;13.438;2023-03-13T08:39:09;19.48;;;6.72;;
71562;SDS011;59391;52.504;13.438;2023-03-13T08:41:43;19.48;;;6.18;;
71562;SDS011;59391;52.504;13.438;2023-03-13T08:44:10;18.40;;;7.15;;
71562;SDS011;59391;52.504;13.438;2023-03-13T08:46:39;17.90;;;6.70;;
71562;SDS011;59391;52.504;13.438;2023-03-13T08:49:05;18.70;;;6.27;;
71562;SDS011;59391;52.504;13.438;2023-03-13T08:51:32;18.27;;;5.70;;
71562;SDS011;59391;52.504;13.438;2023-03-13T08:53:59;12.68;;;6.13;;
71562;SDS011;59391;52.504;13.438;2023-03-13T08:56:26;15.90;;;5.43;;
71562;SDS011;59391;52.504;13.438;2023-03-13T08:58:55;16.30;;;5.30;;
71562;SDS011;59391;52.504;13.438;2023-03-13T09:01:24;14.85;;;6.10;;
71562;SDS011;59391;52.504;13.438;2023-03-13T09:03:53;15.88;;;6.10;;
71562;SDS011;59391;52.504;13.438;2023-03-13T09:06:20;16.13;;;5.10;;
71562;SDS011;59391;52.504;13.438;2023-03-13T09:08:46;15.65;;;5.10;;
71562;SDS011;59391;52.504;13.438;2023-03-13T09:11:12;15.33;;;5.20;;
71562;SDS011;59391;52.504;13.438;2023-03-13T09:13:45;14.73;;;5.65;;
71562;SDS011;59391;52.504;13.438;2023-03-13T09:16:15;10.27;;;4.85;;
71562;SDS011;59391;52.504;13.438;2023-03-13T09:18:46;15.27;;;6.20;;
71562;SDS011;59391;52.504;13.438;2023-03-13T09:21:13;18.10;;;6.18;;
71562;SDS011;59391;52.504;13.438;2023-03-13T09:23:43;13.27;;;5.07;;
71562;SDS011;59391;52.504;13.438;2023-03-13T09:26:08;17.67;;;6.10;;
71562;SDS011;59391;52.504;13.438;2023-03-13T09:28:35;12.43;;;4.68;;
71562;SDS011;59391;52.504;13.438;2023-03-13T09:31:08;14.30;;;4.90;;
71562;SDS011;59391;52.504;13.438;2023-03-13T09:33:39;18.55;;;5.38;;
71562;SDS011;59391;52.504;13.438;2023-03-13T09:36:08;13.70;;;5.05;;
71562;SDS011;59391;52.504;13.438;2023-03-13T09:38:34;13.50;;;4.47;;
71562;SDS011;59391;52.504;13.438;2023-03-13T09:41:03;10.35;;;4.50;;
71562;SDS011;59391;52.504;13.438;2023-03-13T09:43:52;14.50;;;6.07;;
71562;SDS011;59391;52.504;13.438;2023-03-13T09:46:30;10.75;;;3.92;;
71562;SDS011;59391;52.504;13.438;2023-03-13T09:49:32;10.48;;;4.00;;
71562;SDS011;59391;52.504;13.438;2023-03-13T09:52:03;16.50;;;5.90;;
71562;SDS011;59391;52.504;13.438;2023-03-13T09:55:19;14.18;;;5.60;;
71562;SDS011;59391;52.504;13.438;2023-03-13T09:57:52;14.38;;;5.13;;
71562;SDS011;59391;52.504;13.438;2023-03-13T10:00:22;14.85;;;4.18;;
71562;SDS011;59391;52.504;13.438;2023-03-13T10:02:59;15.30;;;5.03;;
71562;SDS011;59391;52.504;13.438;2023-03-13T10:05:37;10.37;;;4.63;;
71562;SDS011;59391;52.504;13.438;2023-03-13T10:08:16;21.48;;;8.23;;
71562;SDS011;59391;52.504;13.438;2023-03-13T10:10:50;16.75;;;5.53;;
71562;SDS011;59391;52.504;13.438;2023-03-13T10:13:30;10.18;;;3.85;;
71562;SDS011;59391;52.504;13.438;2023-03-13T10:16:23;17.30;;;6.50;;
71562;SDS011;59391;52.504;13.438;2023-03-13T10:19:26;18.17;;;5.53;;
71562;SDS011;59391;52.504;13.438;2023-03-13T10:22:01;19.65;;;6.63;;
71562;SDS011;59391;52.504;13.438;2023-03-13T10:27:13;11.48;;;4.68;;
71562;SDS011;59391;52.504;13.438;2023-03-13T10:29:39;13.63;;;4.50;;
71562;SDS011;59391;52.504;13.438;2023-03-13T10:32:06;11.07;;;3.60;;
71562;SDS011;59391;52.504;13.438;2023-03-13T10:37:25;13.65;;;5.53;;
71562;SDS011;59391;52.504;13.438;2023-03-13T10:40:21;9.77;;;4.37;;
71562;SDS011;59391;52.504;13.438;2023-03-13T10:42:51;11.50;;;4.78;;
71562;SDS011;59391;52.504;13.438;2023-03-13T10:45:24;17.10;;;7.50;;
71562;SDS011;59391;52.504;13.438;2023-03-13T10:47:55;9.88;;;4.82;;
71562;SDS011;59391;52.504;13.438;2023-03-13T10:50:26;10.20;;;4.45;;
71562;SDS011;59391;52.504;13.438;2023-03-13T10:52:57;8.27;;;3.37;;
71562;SDS011;59391;52.504;13.438;2023-03-13T10:55:45;13.30;;;5.47;;
71562;SDS011;59391;52.504;13.438;2023-03-13T10:58:17;12.30;;;5.07;;
71562;SDS011;59391;52.504;13.438;2023-03-13T11:00:50;9.05;;;3.67;;
71562;SDS011;59391;52.504;13.438;2023-03-13T11:03:22;12.17;;;4.40;;
71562;SDS011;59391;52.504;13.438;2023-03-13T11:06:00;8.80;;;3.97;;
71562;SDS011;59391;52.504;13.438;2023-03-13T11:08:29;15.60;;;6.38;;
71562;SDS011;59391;52.504;13.438;2023-03-13T11:11:00;14.95;;;6.07;;
71562;SDS011;59391;52.504;13.438;2023-03-13T11:16:12;11.52;;;4.88;;
71562;SDS011;59391;52.504;13.438;2023-03-13T11:19:00;7.43;;;3.10;;
71562;SDS011;59391;52.504;13.438;2023-03-13T11:22:09;8.48;;;4.00;;
71562;SDS011;59391;52.504;13.438;2023-03-13T11:31:06;6.65;;;3.30;;
71562;SDS011;59391;52.504;13.438;2023-03-13T11:33:52;7.78;;;4.05;;
71562;SDS011;59391;52.504;13.438;2023-03-13T11:36:43;6.95;;;3.70;;
71562;SDS011;59391;52.504;13.438;2023-03-13T11:39:29;6.05;;;3.60;;
71562;SDS011;59391;52.504;13.438;2023-03-13T11:45:38;5.35;;;3.00;;
71562;SDS011;59391;52.504;13.438;2023-03-13T11:51:32;4.60;;;2.97;;
71562;SDS011;59391;52.504;13.438;2023-03-13T11:54:58;6.00;;;3.40;;
71562;SDS011;59391;52.504;13.438;2023-03-13T11:57:52;7.78;;;3.97;;
71562;SDS011;59391;52.504;13.438;2023-03-13T12:01:06;7.28;;;3.58;;
71562;SDS011;59391;52.504;13.438;2023-03-13T12:03:40;5.38;;;3.42;;
71562;SDS011;59391;52.504;13.438;2023-03-13T12:06:24;6.50;;;3.58;;
71562;SDS011;59391;52.504;13.438;2023-03-13T12:09:00;5.25;;;2.72;;
71562;SDS011;59391;52.504;13.438;2023-03-13T12:12:17;5.95;;;3.65;;
71562;SDS011;59391;52.504;13.438;2023-03-13T12:20:54;5.88;;;3.05;;
71562;SDS011;59391;52.504;13.438;2023-03-13T12:23:57;3.85;;;2.45;;
71562;SDS011;59391;52.504;13.438;2023-03-13T12:26:45;5.13;;;2.83;;
71562;SDS011;59391;52.504;13.438;2023-03-13T12:29:29;5.47;;;3.03;;
71562;SDS011;59391;52.504;13.438;2023-03-13T12:32:12;5.28;;;2.95;;
71562;SDS011;59391;52.504;13.438;2023-03-13T12:35:16;4.93;;;2.72;;
71562;SDS011;59391;52.504;13.438;2023-03-13T12:38:00;5.40;;;3.03;;
71562;SDS011;59391;52.504;13.438;2023-03-13T12:40:40;5.50;;;2.75;;
71562;SDS011;59391;52.504;13.438;2023-03-13T12:43:25;4.85;;;2.83;;
71562;SDS011;59391;52.504;13.438;2023-03-13T12:49:05;4.43;;;2.40;;
71562;SDS011;59391;52.504;13.438;2023-03-13T12:52:02;4.38;;;2.58;;
71562;SDS011;59391;52.504;13.438;2023-03-13T12:55:22;6.32;;;2.67;;
71562;SDS011;59391;52.504;13.438;2023-03-13T13:01:24;4.25;;;2.50;;
71562;SDS011;59391;52.504;13.438;2023-03-13T13:04:01;5.47;;;3.20;;
71562;SDS011;59391;52.504;13.438;2023-03-13T13:09:30;6.03;;;3.42;;
71562;SDS011;59391;52.504;13.438;2023-03-13T13:12:17;4.70;;;2.20;;
71562;SDS011;59391;52.504;13.438;2023-03-13T13:17:15;7.07;;;3.70;;
71562;SDS011;59391;52.504;13.438;2023-03-13T13:20:46;5.20;;;3.00;;
71562;SDS011;59391;52.504;13.438;2023-03-13T13:22:54;5.35;;;2.47;;
71562;SDS011;59391;52.504;13.438;2023-03-13T13:29:00;5.60;;;2.40;;
71562;SDS011;59391;52.504;13.438;2023-03-13T13:30:59;4.28;;;2.17;;
71562;SDS011;59391;52.504;13.438;2023-03-13T13:38:34;5.35;;;2.63;;
71562;SDS011;59391;52.504;13.438;2023-03-13T13:43:38;3.97;;;2.20;;
71562;SDS011;59391;52.504;13.438;2023-03-13T13:46:29;4.55;;;2.67;;
71562;SDS011;59391;52.504;13.438;2023-03-13T13:51:30;5.30;;;2.83;;
71562;SDS011;59391;52.504;13.438;2023-03-13T13:54:01;4.60;;;2.65;;
71562;SDS011;59391;52.504;13.438;2023-03-13T13:57:11;5.25;;;2.80;;
71562;SDS011;59391;52.504;13.438;2023-03-13T13:59:45;7.25;;;2.85;;
71562;SDS011;59391;52.504;13.438;2023-03-13T14:02:22;4.55;;;2.50;;
71562;SDS011;59391;52.504;13.438;2023-03-13T14:07:27;5.40;;;2.97;;
71562;SDS011;59391;52.504;13.438;2023-03-13T14:10:16;3.88;;;2.20;;
71562;SDS011;59391;52.504;13.438;2023-03-13T14:13:01;4.40;;;2.60;;
71562;SDS011;59391;52.504;13.438;2023-03-13T14:15:43;7.57;;;3.22;;
71562;SDS011;59391;52.504;13.438;2023-03-13T14:23:44;5.05;;;2.75;;
71562;SDS011;59391;52.504;13.438;2023-03-13T14:28:55;5.07;;;3.00;;
71562;SDS011;59391;52.504;13.438;2023-03-13T14:31:30;7.38;;;3.50;;
71562;SDS011;59391;52.504;13.438;2023-03-13T14:33:58;6.05;;;2.90;;
71562;SDS011;59391;52.504;13.438;2023-03-13T14:36:27;4.93;;;2.80;;
71562;SDS011;59391;52.504;13.438;2023-03-13T14:38:55;5.90;;;2.72;;
71562;SDS011;59391;52.504;13.438;2023-03-13T14:41:26;4.35;;;2.60;;
71562;SDS011;59391;52.504;13.438;2023-03-13T14:44:03;5.05;;;3.28;;
71562;SDS011;59391;52.504;13.438;2023-03-13T14:46:38;4.43;;;2.50;;
71562;SDS011;59391;52.504;13.438;2023-03-13T14:49:08;5.40;;;3.05;;
71562;SDS011;59391;52.504;13.438;2023-03-13T14:51:44;5.20;;;3.30;;
71562;SDS011;59391;52.504;13.438;2023-03-13T14:54:26;5.38;;;2.80;;
71562;SDS011;59391;52.504;13.438;2023-03-13T14:59:34;6.22;;;3.00;;
71562;SDS011;59391;52.504;13.438;2023-03-13T15:07:24;4.60;;;2.80;;
71562;SDS011;59391;52.504;13.438;2023-03-13T15:09:59;4.25;;;2.70;;
71562;SDS011;59391;52.504;13.438;2023-03-13T15:12:24;4.00;;;2.80;;
71562;SDS011;59391;52.504;13.438;2023-03-13T15:14:51;5.13;;;2.38;;
71562;SDS011;59391;52.504;13.438;2023-03-13T15:17:21;5.45;;;2.70;;
71562;SDS011;59391;52.504;13.438;2023-03-13T15:19:53;6.72;;;2.90;;
71562;SDS011;59391;52.504;13.438;2023-03-13T15:22:28;5.53;;;2.90;;
71562;SDS011;59391;52.504;13.438;2023-03-13T15:24:57;4.57;;;2.88;;
71562;SDS011;59391;52.504;13.438;2023-03-13T15:27:24;6.07;;;2.80;;
71562;SDS011;59391;52.504;13.438;2023-03-13T15:29:51;4.13;;;2.63;;
71562;SDS011;59391;52.504;13.438;2023-03-13T15:32:22;4.55;;;2.45;;
71562;SDS011;59391;52.504;13.438;2023-03-13T15:34:55;4.10;;;2.65;;
71562;SDS011;59391;52.504;13.438;2023-03-13T15:37:25;5.10;;;2.85;;
71562;SDS011;59391;52.504;13.438;2023-03-13T15:39:53;4.90;;;2.72;;
71562;SDS011;59391;52.504;13.438;2023-03-13T15:42:21;4.25;;;2.75;;
71562;SDS011;59391;52.504;13.438;2023-03-13T15:44:48;6.28;;;2.58;;
71562;SDS011;59391;52.504;13.438;2023-03-13T15:47:16;4.72;;;2.40;;
71562;SDS011;59391;52.504;13.438;2023-03-13T15:49:45;5.93;;;3.22;;
71562;SDS011;59391;52.504;13.438;2023-03-13T15:52:12;4.50;;;2.30;;
71562;SDS011;59391;52.504;13.438;2023-03-13T15:54:42;4.20;;;2.53;;
71562;SDS011;59391;52.504;13.438;2023-03-13T15:57:11;5.53;;;2.75;;
71562;SDS011;59391;52.504;13.438;2023-03-13T15:59:39;5.20;;;2.60;;
71562;SDS011;59391;52.504;13.438;2023-03-13T16:02:15;6.15;;;2.80;;
71562;SDS011;59391;52.504;13.438;2023-03-13T16:04:44;5.20;;;2.70;;
71562;SDS011;59391;52.504;13.438;2023-03-13T16:07:10;4.30;;;2.75;;
71562;SDS011;59391;52.504;13.438;2023-03-13T16:09:39;4.20;;;2.60;;
71562;SDS011;59391;52.504;13.438;2023-03-13T16:12:06;5.07;;;2.90;;